sensor_id;sensor_type;location;lat;lon;timestamp;pressure;altitude;pressure_sealevel;temperature;humidity
75996;BME280;64681;49.738;9.004;2023-07-30T00:00:40;98936.34;;;20.49;75.82
75996;BME280;64681;49.738;9.004;2023-07-30T00:03:06;98931.56;;;20.29;76.50
75996;BME280;64681;49.738;9.004;2023-07-30T00:05:31;98935.34;;;20.35;76.47
75996;BME280;64681;49.738;9.004;2023-07-30T00:07:57;98931.19;;;20.27;76.83
75996;BME280;64681;49.738;9.004;2023-07-30T00:10:22;98921.56;;;20.22;76.72
75996;BME280;64681;49.738;9.004;2023-07-30T00:12:48;98920.91;;;20.15;77.25
75996;BME280;64681;49.738;9.004;2023-07-30T00:15:13;98929.22;;;19.97;78.96
75996;BME280;64681;49.738;9.004;2023-07-30T00:17:39;98929.09;;;20.07;78.05
75996;BME280;64681;49.738;9.004;2023-07-30T00:20:07;98924.19;;;19.95;78.22
75996;BME280;64681;49.738;9.004;2023-07-30T00:22:33;98926.78;;;20.06;77.49
75996;BME280;64681;49.738;9.004;2023-07-30T00:24:59;98925.06;;;19.88;78.34
75996;BME280;64681;49.738;9.004;2023-07-30T00:27:24;98921.25;;;19.78;78.60
75996;BME280;64681;49.738;9.004;2023-07-30T00:29:50;98917.53;;;19.61;79.11
75996;BME280;64681;49.738;9.004;2023-07-30T00:32:16;98918.75;;;19.57;78.85
75996;BME280;64681;49.738;9.004;2023-07-30T00:34:43;98923.88;;;19.44;79.65
75996;BME280;64681;49.738;9.004;2023-07-30T00:37:08;98927.03;;;19.39;79.30
75996;BME280;64681;49.738;9.004;2023-07-30T00:39:35;98934.44;;;19.31;80.02
75996;BME280;64681;49.738;9.004;2023-07-30T00:42:00;98942.63;;;19.24;80.37
75996;BME280;64681;49.738;9.004;2023-07-30T00:44:26;98943.34;;;19.32;80.09
75996;BME280;64681;49.738;9.004;2023-07-30T00:46:52;98945.31;;;19.24;80.23
75996;BME280;64681;49.738;9.004;2023-07-30T00:49:18;98944.50;;;18.71;84.08
75996;BME280;64681;49.738;9.004;2023-07-30T00:51:44;98954.19;;;18.68;84.77
75996;BME280;64681;49.738;9.004;2023-07-30T00:54:11;98961.81;;;18.80;84.49
75996;BME280;64681;49.738;9.004;2023-07-30T00:56:37;98959.50;;;18.82;84.34
75996;BME280;64681;49.738;9.004;2023-07-30T00:59:03;98964.06;;;19.00;83.56
75996;BME280;64681;49.738;9.004;2023-07-30T01:01:33;98961.72;;;19.02;83.33
75996;BME280;64681;49.738;9.004;2023-07-30T01:04:01;98969.41;;;19.11;82.97
75996;BME280;64681;49.738;9.004;2023-07-30T01:06:27;98970.25;;;19.01;83.38
75996;BME280;64681;49.738;9.004;2023-07-30T01:08:52;98977.56;;;19.07;82.78
75996;BME280;64681;49.738;9.004;2023-07-30T01:11:19;98986.00;;;19.13;83.15
75996;BME280;64681;49.738;9.004;2023-07-30T01:13:45;98989.81;;;19.26;82.47
75996;BME280;64681;49.738;9.004;2023-07-30T01:16:11;98986.25;;;19.33;82.24
75996;BME280;64681;49.738;9.004;2023-07-30T01:18:37;98984.66;;;19.39;82.08
75996;BME280;64681;49.738;9.004;2023-07-30T01:21:03;98993.47;;;19.51;81.35
75996;BME280;64681;49.738;9.004;2023-07-30T01:23:28;98994.75;;;19.35;81.82
75996;BME280;64681;49.738;9.004;2023-07-30T01:26:03;99004.00;;;19.38;81.63
75996;BME280;64681;49.738;9.004;2023-07-30T01:28:37;99000.25;;;19.24;82.13
75996;BME280;64681;49.738;9.004;2023-07-30T01:31:05;98999.47;;;19.20;81.88
75996;BME280;64681;49.738;9.004;2023-07-30T01:33:32;98996.38;;;19.25;81.56
75996;BME280;64681;49.738;9.004;2023-07-30T01:35:58;98996.38;;;19.25;81.33
75996;BME280;64681;49.738;9.004;2023-07-30T01:38:26;98991.75;;;19.22;81.10
75996;BME280;64681;49.738;9.004;2023-07-30T01:40:52;98995.03;;;18.95;82.37
75996;BME280;64681;49.738;9.004;2023-07-30T01:43:18;98994.59;;;19.01;81.89
75996;BME280;64681;49.738;9.004;2023-07-30T01:45:43;98996.53;;;19.00;82.04
75996;BME280;64681;49.738;9.004;2023-07-30T01:48:09;99001.97;;;18.93;82.17
75996;BME280;64681;49.738;9.004;2023-07-30T01:50:35;99012.75;;;19.04;81.57
75996;BME280;64681;49.738;9.004;2023-07-30T01:53:00;99002.66;;;19.11;81.19
75996;BME280;64681;49.738;9.004;2023-07-30T01:55:26;99005.34;;;19.11;81.28
75996;BME280;64681;49.738;9.004;2023-07-30T01:57:51;98999.88;;;19.19;80.90
75996;BME280;64681;49.738;9.004;2023-07-30T02:00:17;99002.97;;;19.21;81.18
75996;BME280;64681;49.738;9.004;2023-07-30T02:02:43;99008.03;;;19.15;81.56
75996;BME280;64681;49.738;9.004;2023-07-30T02:05:09;99011.88;;;19.18;81.39
75996;BME280;64681;49.738;9.004;2023-07-30T02:07:34;99008.38;;;19.24;81.47
75996;BME280;64681;49.738;9.004;2023-07-30T02:10:00;99012.66;;;19.22;81.24
75996;BME280;64681;49.738;9.004;2023-07-30T02:12:25;99010.69;;;19.22;81.41
75996;BME280;64681;49.738;9.004;2023-07-30T02:14:51;99017.59;;;19.30;80.93
75996;BME280;64681;49.738;9.004;2023-07-30T02:17:17;99010.53;;;19.44;80.45
75996;BME280;64681;49.738;9.004;2023-07-30T02:19:42;99015.25;;;19.36;80.39
75996;BME280;64681;49.738;9.004;2023-07-30T02:22:08;99009.75;;;19.47;79.87
75996;BME280;64681;49.738;9.004;2023-07-30T02:24:33;99009.22;;;19.63;79.40
75996;BME280;64681;49.738;9.004;2023-07-30T02:26:59;99006.94;;;19.61;78.84
75996;BME280;64681;49.738;9.004;2023-07-30T02:29:24;99015.44;;;19.64;78.79
75996;BME280;64681;49.738;9.004;2023-07-30T02:31:50;99018.44;;;19.76;78.49
75996;BME280;64681;49.738;9.004;2023-07-30T02:34:16;99018.84;;;19.71;78.57
75996;BME280;64681;49.738;9.004;2023-07-30T02:36:41;99012.34;;;19.61;78.84
75996;BME280;64681;49.738;9.004;2023-07-30T02:39:07;99014.09;;;19.83;78.26
75996;BME280;64681;49.738;9.004;2023-07-30T02:41:33;99029.19;;;19.84;77.86
75996;BME280;64681;49.738;9.004;2023-07-30T02:43:58;99023.41;;;19.82;78.04
75996;BME280;64681;49.738;9.004;2023-07-30T02:46:24;99028.81;;;19.85;77.76
75996;BME280;64681;49.738;9.004;2023-07-30T02:48:49;99014.50;;;19.81;77.46
75996;BME280;64681;49.738;9.004;2023-07-30T02:51:15;99031.13;;;19.87;77.47
75996;BME280;64681;49.738;9.004;2023-07-30T02:53:43;99026.88;;;19.82;77.88
75996;BME280;64681;49.738;9.004;2023-07-30T02:56:09;99027.84;;;19.61;78.93
75996;BME280;64681;49.738;9.004;2023-07-30T02:58:35;99031.63;;;19.71;78.65
75996;BME280;64681;49.738;9.004;2023-07-30T03:01:07;99031.75;;;19.56;79.29
75996;BME280;64681;49.738;9.004;2023-07-30T03:03:33;99028.56;;;19.65;78.86
75996;BME280;64681;49.738;9.004;2023-07-30T03:05:59;99025.94;;;19.54;79.59
75996;BME280;64681;49.738;9.004;2023-07-30T03:08:25;99031.38;;;19.51;79.62
75996;BME280;64681;49.738;9.004;2023-07-30T03:10:50;99037.13;;;19.60;78.96
75996;BME280;64681;49.738;9.004;2023-07-30T03:13:16;99039.09;;;19.52;79.26
75996;BME280;64681;49.738;9.004;2023-07-30T03:15:41;99045.97;;;19.68;78.55
75996;BME280;64681;49.738;9.004;2023-07-30T03:18:07;99041.41;;;19.57;78.58
75996;BME280;64681;49.738;9.004;2023-07-30T03:20:32;99028.84;;;19.29;79.98
75996;BME280;64681;49.738;9.004;2023-07-30T03:22:58;99029.25;;;19.20;79.72
75996;BME280;64681;49.738;9.004;2023-07-30T03:25:23;99037.38;;;19.20;79.29
75996;BME280;64681;49.738;9.004;2023-07-30T03:27:49;99040.16;;;19.06;79.95
75996;BME280;64681;49.738;9.004;2023-07-30T03:30:14;99039.44;;;19.02;79.52
75996;BME280;64681;49.738;9.004;2023-07-30T03:32:40;99045.25;;;19.00;79.63
75996;BME280;64681;49.738;9.004;2023-07-30T03:35:06;99044.88;;;18.91;79.80
75996;BME280;64681;49.738;9.004;2023-07-30T03:37:31;99041.50;;;18.65;81.48
75996;BME280;64681;49.738;9.004;2023-07-30T03:39:57;99038.38;;;18.70;80.85
75996;BME280;64681;49.738;9.004;2023-07-30T03:42:22;99041.50;;;18.65;80.75
75996;BME280;64681;49.738;9.004;2023-07-30T03:44:48;99043.41;;;18.75;80.51
75996;BME280;64681;49.738;9.004;2023-07-30T03:47:13;99050.06;;;18.45;82.57
75996;BME280;64681;49.738;9.004;2023-07-30T03:49:39;99042.66;;;18.64;81.82
75996;BME280;64681;49.738;9.004;2023-07-30T03:52:05;99036.22;;;18.22;85.15
75996;BME280;64681;49.738;9.004;2023-07-30T03:54:30;99034.25;;;18.29;84.37
75996;BME280;64681;49.738;9.004;2023-07-30T03:56:56;99047.72;;;18.44;83.30
75996;BME280;64681;49.738;9.004;2023-07-30T03:59:22;99043.84;;;18.48;82.47
75996;BME280;64681;49.738;9.004;2023-07-30T04:01:47;99047.72;;;18.47;82.08
75996;BME280;64681;49.738;9.004;2023-07-30T04:04:13;99043.13;;;18.41;82.00
75996;BME280;64681;49.738;9.004;2023-07-30T04:06:38;99053.56;;;18.28;82.60
75996;BME280;64681;49.738;9.004;2023-07-30T04:09:04;99053.56;;;18.31;83.01
75996;BME280;64681;49.738;9.004;2023-07-30T04:11:29;99059.72;;;18.46;82.92
75996;BME280;64681;49.738;9.004;2023-07-30T04:13:55;99059.28;;;18.62;82.67
75996;BME280;64681;49.738;9.004;2023-07-30T04:16:20;99056.91;;;18.75;82.47
75996;BME280;64681;49.738;9.004;2023-07-30T04:18:46;99061.13;;;18.83;82.33
75996;BME280;64681;49.738;9.004;2023-07-30T04:21:11;99061.88;;;18.95;82.12
75996;BME280;64681;49.738;9.004;2023-07-30T04:23:39;99061.84;;;18.98;82.13
75996;BME280;64681;49.738;9.004;2023-07-30T04:26:04;99073.00;;;19.11;81.91
75996;BME280;64681;49.738;9.004;2023-07-30T04:28:30;99069.88;;;19.17;82.14
75996;BME280;64681;49.738;9.004;2023-07-30T04:30:55;99072.13;;;19.33;81.36
75996;BME280;64681;49.738;9.004;2023-07-30T04:33:21;99074.06;;;19.28;81.54
75996;BME280;64681;49.738;9.004;2023-07-30T04:35:46;99080.59;;;19.42;81.25
75996;BME280;64681;49.738;9.004;2023-07-30T04:38:12;99083.19;;;19.60;80.74
75996;BME280;64681;49.738;9.004;2023-07-30T04:40:39;99085.91;;;19.56;80.79
75996;BME280;64681;49.738;9.004;2023-07-30T04:43:04;99078.09;;;19.66;80.18
75996;BME280;64681;49.738;9.004;2023-07-30T04:45:30;99076.47;;;19.75;80.01
75996;BME280;64681;49.738;9.004;2023-07-30T04:47:56;99087.16;;;20.01;78.33
75996;BME280;64681;49.738;9.004;2023-07-30T04:50:22;99095.34;;;19.93;78.00
75996;BME280;64681;49.738;9.004;2023-07-30T04:52:48;99087.16;;;19.97;78.08
75996;BME280;64681;49.738;9.004;2023-07-30T04:55:13;99085.22;;;19.98;78.11
75996;BME280;64681;49.738;9.004;2023-07-30T04:57:39;99085.50;;;20.11;78.23
75996;BME280;64681;49.738;9.004;2023-07-30T05:00:05;99085.03;;;20.19;77.92
75996;BME280;64681;49.738;9.004;2023-07-30T05:02:31;99091.50;;;20.33;77.41
75996;BME280;64681;49.738;9.004;2023-07-30T05:04:56;99097.56;;;20.44;76.18
75996;BME280;64681;49.738;9.004;2023-07-30T05:07:22;99101.03;;;20.48;76.30
75996;BME280;64681;49.738;9.004;2023-07-30T05:09:47;99114.16;;;20.53;76.44
75996;BME280;64681;49.738;9.004;2023-07-30T05:12:13;99114.84;;;20.61;76.31
75996;BME280;64681;49.738;9.004;2023-07-30T05:14:38;99110.91;;;20.66;76.09
75996;BME280;64681;49.738;9.004;2023-07-30T05:17:04;99104.69;;;20.69;75.86
75996;BME280;64681;49.738;9.004;2023-07-30T05:19:30;99105.25;;;20.91;75.36
75996;BME280;64681;49.738;9.004;2023-07-30T05:21:56;99097.53;;;20.86;74.59
75996;BME280;64681;49.738;9.004;2023-07-30T05:24:21;99094.38;;;20.91;74.52
75996;BME280;64681;49.738;9.004;2023-07-30T05:26:47;99091.66;;;20.91;73.88
75996;BME280;64681;49.738;9.004;2023-07-30T05:29:12;99076.31;;;20.77;73.85
75996;BME280;64681;49.738;9.004;2023-07-30T05:31:38;99083.06;;;20.96;73.97
75996;BME280;64681;49.738;9.004;2023-07-30T05:34:03;99091.41;;;21.13;73.76
75996;BME280;64681;49.738;9.004;2023-07-30T05:36:30;99095.91;;;21.23;73.17
75996;BME280;64681;49.738;9.004;2023-07-30T05:38:55;99085.88;;;21.20;72.26
75996;BME280;64681;49.738;9.004;2023-07-30T05:41:21;99086.25;;;21.46;72.25
75996;BME280;64681;49.738;9.004;2023-07-30T05:43:46;99087.94;;;21.67;71.63
75996;BME280;64681;49.738;9.004;2023-07-30T05:46:13;99077.31;;;21.76;70.69
75996;BME280;64681;49.738;9.004;2023-07-30T05:48:38;99070.56;;;21.85;70.25
75996;BME280;64681;49.738;9.004;2023-07-30T05:51:04;99061.88;;;21.70;68.50
75996;BME280;64681;49.738;9.004;2023-07-30T05:53:29;99066.91;;;21.95;69.03
75996;BME280;64681;49.738;9.004;2023-07-30T05:55:55;99063.41;;;22.18;68.98
75996;BME280;64681;49.738;9.004;2023-07-30T05:58:20;99063.84;;;22.37;68.22
75996;BME280;64681;49.738;9.004;2023-07-30T06:00:46;99067.09;;;22.52;67.95
75996;BME280;64681;49.738;9.004;2023-07-30T06:03:11;99072.94;;;22.50;67.92
75996;BME280;64681;49.738;9.004;2023-07-30T06:05:45;99075.75;;;22.23;67.90
75996;BME280;64681;49.738;9.004;2023-07-30T06:08:11;99074.44;;;22.31;68.10
75996;BME280;64681;49.738;9.004;2023-07-30T06:10:37;99069.19;;;22.64;67.03
75996;BME280;64681;49.738;9.004;2023-07-30T06:13:04;99078.22;;;23.18;66.41
75996;BME280;64681;49.738;9.004;2023-07-30T06:15:30;99090.88;;;23.78;64.31
75996;BME280;64681;49.738;9.004;2023-07-30T06:17:56;99086.28;;;24.67;62.32
75996;BME280;64681;49.738;9.004;2023-07-30T06:20:21;99098.44;;;25.47;58.56
75996;BME280;64681;49.738;9.004;2023-07-30T06:22:47;99099.63;;;25.71;56.30
75996;BME280;64681;49.738;9.004;2023-07-30T06:25:12;99106.91;;;25.87;56.99
75996;BME280;64681;49.738;9.004;2023-07-30T06:27:38;99111.91;;;26.02;55.97
75996;BME280;64681;49.738;9.004;2023-07-30T06:30:04;99118.97;;;25.90;55.29
75996;BME280;64681;49.738;9.004;2023-07-30T06:32:29;99122.69;;;25.83;56.02
75996;BME280;64681;49.738;9.004;2023-07-30T06:34:55;99109.44;;;25.30;56.95
75996;BME280;64681;49.738;9.004;2023-07-30T06:37:21;99106.50;;;25.37;57.15
75996;BME280;64681;49.738;9.004;2023-07-30T06:39:46;99103.88;;;25.21;57.28
75996;BME280;64681;49.738;9.004;2023-07-30T06:42:12;99105.78;;;24.94;58.08
75996;BME280;64681;49.738;9.004;2023-07-30T06:44:37;99099.13;;;24.53;58.96
75996;BME280;64681;49.738;9.004;2023-07-30T06:47:03;99086.44;;;24.76;58.66
75996;BME280;64681;49.738;9.004;2023-07-30T06:49:29;99099.94;;;25.73;56.03
75996;BME280;64681;49.738;9.004;2023-07-30T06:51:54;99100.34;;;27.40;52.71
75996;BME280;64681;49.738;9.004;2023-07-30T06:54:20;99102.13;;;29.05;48.11
75996;BME280;64681;49.738;9.004;2023-07-30T06:56:46;99120.53;;;29.90;45.20
75996;BME280;64681;49.738;9.004;2023-07-30T06:59:11;99120.75;;;30.65;42.97
75996;BME280;64681;49.738;9.004;2023-07-30T07:01:37;99108.41;;;31.97;40.75
75996;BME280;64681;49.738;9.004;2023-07-30T07:04:02;99111.31;;;32.82;39.22
75996;BME280;64681;49.738;9.004;2023-07-30T07:06:28;99115.97;;;32.44;38.39
75996;BME280;64681;49.738;9.004;2023-07-30T07:08:53;99111.28;;;33.14;37.31
75996;BME280;64681;49.738;9.004;2023-07-30T07:11:19;99116.41;;;32.63;38.41
75996;BME280;64681;49.738;9.004;2023-07-30T07:13:44;99109.09;;;32.60;38.26
75996;BME280;64681;49.738;9.004;2023-07-30T07:16:10;99112.25;;;33.37;37.74
75996;BME280;64681;49.738;9.004;2023-07-30T07:18:35;99111.44;;;33.80;36.15
75996;BME280;64681;49.738;9.004;2023-07-30T07:21:01;99108.78;;;34.08;35.77
75996;BME280;64681;49.738;9.004;2023-07-30T07:23:27;99111.81;;;34.05;35.61
75996;BME280;64681;49.738;9.004;2023-07-30T07:25:52;99116.72;;;33.78;36.02
75996;BME280;64681;49.738;9.004;2023-07-30T07:28:18;99120.41;;;33.58;36.89
75996;BME280;64681;49.738;9.004;2023-07-30T07:30:44;99113.34;;;34.12;36.63
75996;BME280;64681;49.738;9.004;2023-07-30T07:33:10;99116.22;;;33.80;35.99
75996;BME280;64681;49.738;9.004;2023-07-30T07:35:41;99108.25;;;32.80;36.30
75996;BME280;64681;49.738;9.004;2023-07-30T07:38:06;99118.47;;;32.68;36.91
75996;BME280;64681;49.738;9.004;2023-07-30T07:40:38;99128.69;;;32.35;37.07
75996;BME280;64681;49.738;9.004;2023-07-30T07:43:08;99128.25;;;31.60;38.25
75996;BME280;64681;49.738;9.004;2023-07-30T07:45:34;99126.66;;;31.18;38.76
75996;BME280;64681;49.738;9.004;2023-07-30T07:48:00;99115.00;;;29.66;41.81
75996;BME280;64681;49.738;9.004;2023-07-30T07:50:25;99113.69;;;29.85;41.91
75996;BME280;64681;49.738;9.004;2023-07-30T07:52:51;99100.28;;;29.54;42.43
75996;BME280;64681;49.738;9.004;2023-07-30T07:55:16;99096.25;;;29.55;43.00
75996;BME280;64681;49.738;9.004;2023-07-30T07:57:42;99099.97;;;29.52;41.89
75996;BME280;64681;49.738;9.004;2023-07-30T08:00:08;99093.81;;;29.24;42.84
75996;BME280;64681;49.738;9.004;2023-07-30T08:02:34;99099.03;;;28.32;44.91
75996;BME280;64681;49.738;9.004;2023-07-30T08:05:00;99101.94;;;28.10;46.08
75996;BME280;64681;49.738;9.004;2023-07-30T08:07:25;99100.00;;;27.70;47.25
75996;BME280;64681;49.738;9.004;2023-07-30T08:09:51;99100.34;;;26.55;49.14
75996;BME280;64681;49.738;9.004;2023-07-30T08:12:18;99107.72;;;26.23;49.99
75996;BME280;64681;49.738;9.004;2023-07-30T08:14:44;99111.72;;;25.96;50.21
75996;BME280;64681;49.738;9.004;2023-07-30T08:17:09;99108.63;;;24.91;52.92
75996;BME280;64681;49.738;9.004;2023-07-30T08:19:35;99102.41;;;24.90;52.68
75996;BME280;64681;49.738;9.004;2023-07-30T08:22:00;99109.13;;;24.73;53.96
75996;BME280;64681;49.738;9.004;2023-07-30T08:24:26;99117.81;;;24.38;54.67
75996;BME280;64681;49.738;9.004;2023-07-30T08:26:51;99095.97;;;22.86;60.37
75996;BME280;64681;49.738;9.004;2023-07-30T08:29:17;99111.56;;;23.42;59.78
75996;BME280;64681;49.738;9.004;2023-07-30T08:31:42;99112.94;;;24.00;58.49
75996;BME280;64681;49.738;9.004;2023-07-30T08:34:08;99106.66;;;24.78;56.62
75996;BME280;64681;49.738;9.004;2023-07-30T08:36:33;99112.28;;;25.26;55.13
75996;BME280;64681;49.738;9.004;2023-07-30T08:38:59;99113.97;;;25.50;54.58
75996;BME280;64681;49.738;9.004;2023-07-30T08:41:24;99118.56;;;25.40;54.45
75996;BME280;64681;49.738;9.004;2023-07-30T08:43:50;99121.06;;;24.79;55.51
75996;BME280;64681;49.738;9.004;2023-07-30T08:46:18;99133.13;;;26.23;53.50
75996;BME280;64681;49.738;9.004;2023-07-30T08:48:44;99117.22;;;27.61;48.41
75996;BME280;64681;49.738;9.004;2023-07-30T08:51:11;99111.53;;;28.61;47.44
75996;BME280;64681;49.738;9.004;2023-07-30T08:53:38;99116.19;;;28.98;45.26
75996;BME280;64681;49.738;9.004;2023-07-30T08:56:05;99120.63;;;29.72;43.44
75996;BME280;64681;49.738;9.004;2023-07-30T08:58:33;99115.69;;;30.09;43.69
75996;BME280;64681;49.738;9.004;2023-07-30T09:01:03;99115.09;;;30.05;43.26
75996;BME280;64681;49.738;9.004;2023-07-30T09:03:36;99110.63;;;29.59;43.51
75996;BME280;64681;49.738;9.004;2023-07-30T09:06:03;99100.56;;;28.15;46.99
75996;BME280;64681;49.738;9.004;2023-07-30T09:08:28;99108.06;;;27.55;47.95
75996;BME280;64681;49.738;9.004;2023-07-30T09:10:55;99105.97;;;27.37;48.44
75996;BME280;64681;49.738;9.004;2023-07-30T09:13:21;99116.75;;;27.22;50.01
75996;BME280;64681;49.738;9.004;2023-07-30T09:15:50;99103.28;;;26.61;51.96
75996;BME280;64681;49.738;9.004;2023-07-30T09:18:20;99107.94;;;25.68;53.91
75996;BME280;64681;49.738;9.004;2023-07-30T09:20:46;99116.53;;;25.79;54.12
75996;BME280;64681;49.738;9.004;2023-07-30T09:23:12;99113.53;;;25.51;54.93
75996;BME280;64681;49.738;9.004;2023-07-30T09:25:38;99113.59;;;25.22;55.11
75996;BME280;64681;49.738;9.004;2023-07-30T09:28:05;99104.22;;;25.49;53.86
75996;BME280;64681;49.738;9.004;2023-07-30T09:30:31;99115.06;;;25.52;53.47
75996;BME280;64681;49.738;9.004;2023-07-30T09:32:58;99103.56;;;25.57;53.97
75996;BME280;64681;49.738;9.004;2023-07-30T09:35:25;99112.22;;;25.43;54.55
75996;BME280;64681;49.738;9.004;2023-07-30T09:37:58;99115.59;;;25.47;52.61
75996;BME280;64681;49.738;9.004;2023-07-30T09:40:35;99112.06;;;25.85;52.01
75996;BME280;64681;49.738;9.004;2023-07-30T09:43:03;99121.63;;;26.03;51.85
75996;BME280;64681;49.738;9.004;2023-07-30T09:45:33;99121.63;;;26.16;52.67
75996;BME280;64681;49.738;9.004;2023-07-30T09:48:03;99125.31;;;26.57;52.09
75996;BME280;64681;49.738;9.004;2023-07-30T09:50:30;99116.22;;;26.82;51.03
75996;BME280;64681;49.738;9.004;2023-07-30T09:52:58;99124.81;;;26.94;48.94
75996;BME280;64681;49.738;9.004;2023-07-30T09:55:24;99130.22;;;26.62;50.01
75996;BME280;64681;49.738;9.004;2023-07-30T09:57:49;99120.72;;;26.98;48.82
75996;BME280;64681;49.738;9.004;2023-07-30T10:00:15;99135.28;;;27.17;49.52
75996;BME280;64681;49.738;9.004;2023-07-30T10:02:46;99128.41;;;26.81;47.60
75996;BME280;64681;49.738;9.004;2023-07-30T10:05:20;99139.53;;;26.65;47.23
75996;BME280;64681;49.738;9.004;2023-07-30T10:07:56;99133.13;;;26.81;44.26
75996;BME280;64681;49.738;9.004;2023-07-30T10:10:24;99133.66;;;27.20;44.67
75996;BME280;64681;49.738;9.004;2023-07-30T10:12:52;99130.16;;;26.75;43.98
75996;BME280;64681;49.738;9.004;2023-07-30T10:15:20;99128.31;;;26.50;45.02
75996;BME280;64681;49.738;9.004;2023-07-30T10:17:51;99170.06;;;26.76;46.01
75996;BME280;64681;49.738;9.004;2023-07-30T10:20:24;99181.66;;;25.97;47.14
75996;BME280;64681;49.738;9.004;2023-07-30T10:22:56;99186.78;;;25.43;44.92
75996;BME280;64681;49.738;9.004;2023-07-30T10:28:06;99199.03;;;24.01;47.43
75996;BME280;64681;49.738;9.004;2023-07-30T10:30:33;99209.09;;;23.67;48.47
75996;BME280;64681;49.738;9.004;2023-07-30T10:33:04;99199.81;;;24.01;48.82
75996;BME280;64681;49.738;9.004;2023-07-30T10:35:42;99209.44;;;24.06;47.32
75996;BME280;64681;49.738;9.004;2023-07-30T10:38:30;99205.94;;;24.85;48.82
75996;BME280;64681;49.738;9.004;2023-07-30T10:41:08;99207.81;;;25.17;47.66
75996;BME280;64681;49.738;9.004;2023-07-30T10:43:36;99217.72;;;24.19;49.59
75996;BME280;64681;49.738;9.004;2023-07-30T10:46:04;99221.28;;;24.95;47.86
75996;BME280;64681;49.738;9.004;2023-07-30T10:48:43;99219.16;;;25.45;47.08
75996;BME280;64681;49.738;9.004;2023-07-30T10:51:14;99223.19;;;24.98;46.41
75996;BME280;64681;49.738;9.004;2023-07-30T10:53:44;99222.50;;;25.36;48.11
75996;BME280;64681;49.738;9.004;2023-07-30T10:56:10;99219.06;;;25.62;47.11
75996;BME280;64681;49.738;9.004;2023-07-30T10:58:37;99215.78;;;24.82;49.07
75996;BME280;64681;49.738;9.004;2023-07-30T11:01:05;99204.28;;;24.74;50.81
75996;BME280;64681;49.738;9.004;2023-07-30T11:03:31;99214.88;;;25.02;49.04
75996;BME280;64681;49.738;9.004;2023-07-30T11:05:58;99226.25;;;25.42;48.25
75996;BME280;64681;49.738;9.004;2023-07-30T11:10:59;99240.06;;;25.78;46.67
75996;BME280;64681;49.738;9.004;2023-07-30T11:13:26;99243.38;;;25.72;47.28
75996;BME280;64681;49.738;9.004;2023-07-30T11:15:52;99236.59;;;25.90;47.02
75996;BME280;64681;49.738;9.004;2023-07-30T11:18:17;99252.91;;;26.19;47.04
75996;BME280;64681;49.738;9.004;2023-07-30T11:20:43;99245.81;;;25.41;47.90
75996;BME280;64681;49.738;9.004;2023-07-30T11:25:50;99234.38;;;24.87;48.45
75996;BME280;64681;49.738;9.004;2023-07-30T11:28:35;99242.06;;;24.92;47.46
75996;BME280;64681;49.738;9.004;2023-07-30T11:33:40;99235.72;;;24.95;46.41
75996;BME280;64681;49.738;9.004;2023-07-30T11:36:10;99234.72;;;25.19;46.59
75996;BME280;64681;49.738;9.004;2023-07-30T11:38:38;99239.50;;;25.15;46.95
75996;BME280;64681;49.738;9.004;2023-07-30T11:41:05;99227.00;;;25.01;45.39
75996;BME280;64681;49.738;9.004;2023-07-30T11:43:36;99230.69;;;25.23;47.39
75996;BME280;64681;49.738;9.004;2023-07-30T11:46:10;99239.88;;;25.00;45.25
75996;BME280;64681;49.738;9.004;2023-07-30T11:48:37;99239.94;;;25.68;46.09
75996;BME280;64681;49.738;9.004;2023-07-30T11:51:03;99245.19;;;25.50;43.35
75996;BME280;64681;49.738;9.004;2023-07-30T11:53:55;99259.19;;;25.52;44.82
75996;BME280;64681;49.738;9.004;2023-07-30T11:56:26;99250.25;;;25.77;45.26
75996;BME280;64681;49.738;9.004;2023-07-30T11:58:57;99258.03;;;26.30;42.68
75996;BME280;64681;49.738;9.004;2023-07-30T12:01:25;99258.63;;;25.44;45.07
75996;BME280;64681;49.738;9.004;2023-07-30T12:03:54;99272.16;;;26.16;42.26
75996;BME280;64681;49.738;9.004;2023-07-30T12:06:20;99294.44;;;25.75;44.30
75996;BME280;64681;49.738;9.004;2023-07-30T12:08:48;99297.16;;;25.04;42.92
75996;BME280;64681;49.738;9.004;2023-07-30T12:11:14;99297.00;;;25.40;42.11
75996;BME280;64681;49.738;9.004;2023-07-30T12:13:44;99298.13;;;25.56;43.72
75996;BME280;64681;49.738;9.004;2023-07-30T12:16:13;99295.81;;;25.41;43.26
75996;BME280;64681;49.738;9.004;2023-07-30T12:18:40;99310.91;;;25.00;43.56
75996;BME280;64681;49.738;9.004;2023-07-30T12:21:06;99294.13;;;24.52;42.88
75996;BME280;64681;49.738;9.004;2023-07-30T12:23:34;99311.19;;;24.40;44.96
75996;BME280;64681;49.738;9.004;2023-07-30T12:25:59;99313.78;;;24.10;45.18
75996;BME280;64681;49.738;9.004;2023-07-30T12:28:25;99318.16;;;23.67;46.72
75996;BME280;64681;49.738;9.004;2023-07-30T12:30:51;99320.94;;;23.44;44.23
75996;BME280;64681;49.738;9.004;2023-07-30T12:33:16;99323.38;;;23.18;46.26
75996;BME280;64681;49.738;9.004;2023-07-30T12:35:42;99325.56;;;23.27;44.48
75996;BME280;64681;49.738;9.004;2023-07-30T12:38:08;99317.75;;;23.05;43.47
75996;BME280;64681;49.738;9.004;2023-07-30T12:40:34;99315.84;;;23.46;44.55
75996;BME280;64681;49.738;9.004;2023-07-30T12:43:03;99310.81;;;23.24;44.13
75996;BME280;64681;49.738;9.004;2023-07-30T12:45:30;99320.41;;;23.32;46.57
75996;BME280;64681;49.738;9.004;2023-07-30T12:47:55;99323.03;;;23.76;45.11
75996;BME280;64681;49.738;9.004;2023-07-30T12:50:21;99321.84;;;23.77;42.39
75996;BME280;64681;49.738;9.004;2023-07-30T12:52:46;99330.59;;;23.48;44.47
75996;BME280;64681;49.738;9.004;2023-07-30T12:55:12;99350.44;;;23.69;43.37
75996;BME280;64681;49.738;9.004;2023-07-30T12:57:37;99337.50;;;23.33;46.00
75996;BME280;64681;49.738;9.004;2023-07-30T13:00:03;99326.38;;;23.23;47.20
75996;BME280;64681;49.738;9.004;2023-07-30T13:02:30;99348.66;;;23.62;45.77
75996;BME280;64681;49.738;9.004;2023-07-30T13:04:59;99340.44;;;23.42;45.13
75996;BME280;64681;49.738;9.004;2023-07-30T13:07:25;99347.50;;;23.39;42.86